sensor_id;sensor_type;location;lat;lon;timestamp;pressure;altitude;pressure_sealevel;temperature;humidity
72359;BME280;60317;48.880;-0.862;2022-09-29T00:01:24;98890.97;;;20.40;49.69
72359;BME280;60317;48.880;-0.862;2022-09-29T00:03:52;98889.59;;;20.36;49.77
72359;BME280;60317;48.880;-0.862;2022-09-29T00:06:18;98887.81;;;20.20;50.01
72359;BME280;60317;48.880;-0.862;2022-09-29T00:08:45;98891.19;;;19.97;50.37
72359;BME280;60317;48.880;-0.862;2022-09-29T00:11:13;98886.97;;;20.03;50.30
72359;BME280;60317;48.880;-0.862;2022-09-29T00:13:39;98879.94;;;20.18;49.86
72359;BME280;60317;48.880;-0.862;2022-09-29T00:16:06;98882.75;;;20.25;49.70
72359;BME280;60317;48.880;-0.862;2022-09-29T00:18:33;98875.06;;;20.30;49.79
72359;BME280;60317;48.880;-0.862;2022-09-29T00:21:01;98874.88;;;20.32;49.56
72359;BME280;60317;48.880;-0.862;2022-09-29T00:23:28;98872.03;;;20.33;49.75
72359;BME280;60317;48.880;-0.862;2022-09-29T00:25:59;98879.88;;;20.35;49.53
72359;BME280;60317;48.880;-0.862;2022-09-29T00:28:25;98867.66;;;20.32;49.71
72359;BME280;60317;48.880;-0.862;2022-09-29T00:30:52;98876.03;;;20.37;49.65
72359;BME280;60317;48.880;-0.862;2022-09-29T00:33:18;98881.91;;;20.24;49.91
72359;BME280;60317;48.880;-0.862;2022-09-29T00:35:54;98871.91;;;20.02;50.51
72359;BME280;60317;48.880;-0.862;2022-09-29T00:38:22;98878.94;;;20.03;50.50
72359;BME280;60317;48.880;-0.862;2022-09-29T00:40:48;98880.44;;;20.22;49.82
72359;BME280;60317;48.880;-0.862;2022-09-29T00:43:18;98875.72;;;20.24;49.83
72359;BME280;60317;48.880;-0.862;2022-09-29T00:45:45;98878.03;;;20.35;49.64
72359;BME280;60317;48.880;-0.862;2022-09-29T00:48:11;98873.69;;;20.34;49.47
72359;BME280;60317;48.880;-0.862;2022-09-29T00:50:40;98871.34;;;20.31;49.67
72359;BME280;60317;48.880;-0.862;2022-09-29T00:53:08;98866.66;;;20.33;49.58
72359;BME280;60317;48.880;-0.862;2022-09-29T00:55:37;98868.81;;;20.38;49.61
72359;BME280;60317;48.880;-0.862;2022-09-29T00:58:06;98863.16;;;20.33;49.81
72359;BME280;60317;48.880;-0.862;2022-09-29T01:00:34;98853.59;;;20.14;50.32
72359;BME280;60317;48.880;-0.862;2022-09-29T01:03:03;98853.66;;;19.97;50.59
72359;BME280;60317;48.880;-0.862;2022-09-29T01:05:31;98853.78;;;20.12;50.26
72359;BME280;60317;48.880;-0.862;2022-09-29T01:08:00;98854.59;;;20.21;50.13
72359;BME280;60317;48.880;-0.862;2022-09-29T01:10:28;98851.25;;;20.27;49.78
72359;BME280;60317;48.880;-0.862;2022-09-29T01:12:56;98859.78;;;20.31;49.79
72359;BME280;60317;48.880;-0.862;2022-09-29T01:15:23;98856.41;;;20.29;49.70
72359;BME280;60317;48.880;-0.862;2022-09-29T01:17:50;98848.72;;;20.34;49.84
72359;BME280;60317;48.880;-0.862;2022-09-29T01:20:17;98859.25;;;20.35;49.67
72359;BME280;60317;48.880;-0.862;2022-09-29T01:22:56;98846.69;;;20.36;49.77
72359;BME280;60317;48.880;-0.862;2022-09-29T01:25:36;98849.53;;;20.34;49.78
72359;BME280;60317;48.880;-0.862;2022-09-29T01:28:14;98845.00;;;20.35;49.78
72359;BME280;60317;48.880;-0.862;2022-09-29T01:30:48;98849.56;;;20.18;50.20
72359;BME280;60317;48.880;-0.862;2022-09-29T01:33:22;98848.28;;;19.97;50.44
72359;BME280;60317;48.880;-0.862;2022-09-29T01:35:51;98844.91;;;20.12;50.08
72359;BME280;60317;48.880;-0.862;2022-09-29T01:38:26;98839.84;;;20.25;49.89
72359;BME280;60317;48.880;-0.862;2022-09-29T01:40:56;98847.03;;;20.33;49.73
72359;BME280;60317;48.880;-0.862;2022-09-29T01:43:29;98843.19;;;20.27;49.94
72359;BME280;60317;48.880;-0.862;2022-09-29T01:46:00;98842.16;;;20.28;49.82
72359;BME280;60317;48.880;-0.862;2022-09-29T01:48:28;98836.81;;;20.36;49.76
72359;BME280;60317;48.880;-0.862;2022-09-29T01:50:58;98839.66;;;20.35;49.67
72359;BME280;60317;48.880;-0.862;2022-09-29T01:53:27;98847.88;;;20.33;49.93
72359;BME280;60317;48.880;-0.862;2022-09-29T01:55:56;98845.19;;;20.25;49.93
72359;BME280;60317;48.880;-0.862;2022-09-29T01:58:26;98846.09;;;20.01;50.63
72359;BME280;60317;48.880;-0.862;2022-09-29T02:00:56;98849.78;;;20.08;50.24
72359;BME280;60317;48.880;-0.862;2022-09-29T02:03:27;98853.44;;;20.23;49.74
72359;BME280;60317;48.880;-0.862;2022-09-29T02:05:55;98850.56;;;20.25;49.72
72359;BME280;60317;48.880;-0.862;2022-09-29T02:08:24;98850.75;;;20.23;49.92
72359;BME280;60317;48.880;-0.862;2022-09-29T02:10:53;98845.19;;;20.33;49.75
72359;BME280;60317;48.880;-0.862;2022-09-29T02:13:21;98844.53;;;20.31;49.71
72359;BME280;60317;48.880;-0.862;2022-09-29T02:15:49;98839.66;;;20.35;49.72
72359;BME280;60317;48.880;-0.862;2022-09-29T02:18:19;98839.16;;;20.31;49.75
72359;BME280;60317;48.880;-0.862;2022-09-29T02:20:48;98838.03;;;20.09;50.36
72359;BME280;60317;48.880;-0.862;2022-09-29T02:23:15;98832.19;;;19.97;50.30
72359;BME280;60317;48.880;-0.862;2022-09-29T02:25:42;98839.22;;;20.15;49.88
72359;BME280;60317;48.880;-0.862;2022-09-29T02:28:09;98840.19;;;20.22;49.74
72359;BME280;60317;48.880;-0.862;2022-09-29T02:30:36;98828.75;;;20.28;49.64
72359;BME280;60317;48.880;-0.862;2022-09-29T02:33:02;98826.56;;;20.32;49.55
72359;BME280;60317;48.880;-0.862;2022-09-29T02:35:32;98829.94;;;20.34;49.43
72359;BME280;60317;48.880;-0.862;2022-09-29T02:38:05;98821.69;;;20.35;49.53
72359;BME280;60317;48.880;-0.862;2022-09-29T02:40:46;98817.69;;;20.31;49.68
72359;BME280;60317;48.880;-0.862;2022-09-29T02:43:16;98813.66;;;20.35;49.47
72359;BME280;60317;48.880;-0.862;2022-09-29T02:45:51;98807.94;;;20.38;49.61
72359;BME280;60317;48.880;-0.862;2022-09-29T02:48:27;98814.72;;;20.10;50.22
72359;BME280;60317;48.880;-0.862;2022-09-29T02:51:00;98818.59;;;19.99;50.32
72359;BME280;60317;48.880;-0.862;2022-09-29T02:53:36;98818.59;;;20.15;49.53
72359;BME280;60317;48.880;-0.862;2022-09-29T02:56:06;98822.06;;;20.24;49.32
72359;BME280;60317;48.880;-0.862;2022-09-29T02:58:37;98823.56;;;20.26;49.43
72359;BME280;60317;48.880;-0.862;2022-09-29T03:01:04;98819.22;;;20.25;49.39
72359;BME280;60317;48.880;-0.862;2022-09-29T03:03:31;98829.97;;;20.25;49.52
72359;BME280;60317;48.880;-0.862;2022-09-29T03:05:58;98831.44;;;20.28;49.34
72359;BME280;60317;48.880;-0.862;2022-09-29T03:08:25;98831.28;;;20.30;49.52
72359;BME280;60317;48.880;-0.862;2022-09-29T03:10:52;98837.50;;;20.30;49.61
72359;BME280;60317;48.880;-0.862;2022-09-29T03:13:19;98835.66;;;20.22;49.52
72359;BME280;60317;48.880;-0.862;2022-09-29T03:15:45;98836.34;;;20.00;50.07
72359;BME280;60317;48.880;-0.862;2022-09-29T03:18:11;98829.81;;;20.02;50.10
72359;BME280;60317;48.880;-0.862;2022-09-29T03:20:38;98826.78;;;20.14;49.63
72359;BME280;60317;48.880;-0.862;2022-09-29T03:23:04;98824.25;;;20.20;49.22
72359;BME280;60317;48.880;-0.862;2022-09-29T03:25:31;98829.47;;;20.22;49.28
72359;BME280;60317;48.880;-0.862;2022-09-29T03:27:59;98827.78;;;20.29;49.08
72359;BME280;60317;48.880;-0.862;2022-09-29T03:30:25;98817.88;;;20.30;49.15
72359;BME280;60317;48.880;-0.862;2022-09-29T03:32:52;98828.41;;;20.31;49.39
72359;BME280;60317;48.880;-0.862;2022-09-29T03:35:18;98820.06;;;20.26;49.25
72359;BME280;60317;48.880;-0.862;2022-09-29T03:37:45;98826.06;;;20.28;49.21
72359;BME280;60317;48.880;-0.862;2022-09-29T03:40:11;98823.41;;;20.28;49.43
72359;BME280;60317;48.880;-0.862;2022-09-29T03:42:37;98817.25;;;20.03;50.04
72359;BME280;60317;48.880;-0.862;2022-09-29T03:45:05;98821.81;;;19.94;50.16
72359;BME280;60317;48.880;-0.862;2022-09-29T03:47:32;98813.06;;;20.09;49.49
72359;BME280;60317;48.880;-0.862;2022-09-29T03:49:58;98816.72;;;20.16;49.31
72359;BME280;60317;48.880;-0.862;2022-09-29T03:52:24;98817.56;;;20.16;49.25
72359;BME280;60317;48.880;-0.862;2022-09-29T03:54:51;98812.50;;;20.21;49.15
72359;BME280;60317;48.880;-0.862;2022-09-29T03:57:17;98825.59;;;20.24;48.95
72359;BME280;60317;48.880;-0.862;2022-09-29T03:59:44;98822.91;;;20.24;49.05
72359;BME280;60317;48.880;-0.862;2022-09-29T04:02:12;98820.22;;;20.24;49.11
72359;BME280;60317;48.880;-0.862;2022-09-29T04:04:39;98831.63;;;20.26;49.05
72359;BME280;60317;48.880;-0.862;2022-09-29T04:07:05;98821.56;;;20.20;49.43
72359;BME280;60317;48.880;-0.862;2022-09-29T04:09:32;98819.03;;;20.27;49.23
72359;BME280;60317;48.880;-0.862;2022-09-29T04:11:58;98824.13;;;19.57;49.12
72359;BME280;60317;48.880;-0.862;2022-09-29T04:14:24;98825.78;;;19.17;49.38
72359;BME280;60317;48.880;-0.862;2022-09-29T04:16:51;98824.72;;;19.01;50.03
72359;BME280;60317;48.880;-0.862;2022-09-29T04:19:18;98828.41;;;19.00;49.69
72359;BME280;60317;48.880;-0.862;2022-09-29T04:21:45;98831.91;;;19.01;49.71
72359;BME280;60317;48.880;-0.862;2022-09-29T04:24:11;98828.22;;;18.94;49.82
72359;BME280;60317;48.880;-0.862;2022-09-29T04:26:38;98836.41;;;18.92;49.82
72359;BME280;60317;48.880;-0.862;2022-09-29T04:29:04;98832.38;;;18.88;50.16
72359;BME280;60317;48.880;-0.862;2022-09-29T04:31:31;98839.75;;;18.94;50.40
72359;BME280;60317;48.880;-0.862;2022-09-29T04:33:57;98837.41;;;18.91;50.72
72359;BME280;60317;48.880;-0.862;2022-09-29T04:36:25;98850.28;;;18.88;50.40
72359;BME280;60317;48.880;-0.862;2022-09-29T04:38:51;98842.09;;;18.89;50.18
72359;BME280;60317;48.880;-0.862;2022-09-29T04:41:17;98844.78;;;18.89;50.11
72359;BME280;60317;48.880;-0.862;2022-09-29T04:43:44;98840.25;;;18.90;50.23
72359;BME280;60317;48.880;-0.862;2022-09-29T04:46:11;98838.06;;;18.85;50.27
72359;BME280;60317;48.880;-0.862;2022-09-29T04:48:38;98840.88;;;18.75;50.73
72359;BME280;60317;48.880;-0.862;2022-09-29T04:51:05;98848.38;;;18.72;50.84
72359;BME280;60317;48.880;-0.862;2022-09-29T04:53:33;98847.56;;;18.71;50.33
72359;BME280;60317;48.880;-0.862;2022-09-29T04:56:03;98845.56;;;18.47;50.65
72359;BME280;60317;48.880;-0.862;2022-09-29T04:58:29;98844.53;;;18.40;50.53
72359;BME280;60317;48.880;-0.862;2022-09-29T05:01:02;98838.66;;;18.36;50.62
72359;BME280;60317;48.880;-0.862;2022-09-29T05:03:29;98848.47;;;18.28;50.52
72359;BME280;60317;48.880;-0.862;2022-09-29T05:05:55;98842.38;;;18.18;50.60
72359;BME280;60317;48.880;-0.862;2022-09-29T05:08:22;98841.72;;;18.16;50.77
72359;BME280;60317;48.880;-0.862;2022-09-29T05:10:50;98842.34;;;18.09;50.39
72359;BME280;60317;48.880;-0.862;2022-09-29T05:13:16;98848.38;;;18.11;50.22
72359;BME280;60317;48.880;-0.862;2022-09-29T05:15:42;98844.13;;;18.27;50.16
72359;BME280;60317;48.880;-0.862;2022-09-29T05:18:09;98838.16;;;18.41;49.71
72359;BME280;60317;48.880;-0.862;2022-09-29T05:20:35;98842.00;;;18.39;49.71
72359;BME280;60317;48.880;-0.862;2022-09-29T05:23:15;98839.84;;;18.42;49.55
72359;BME280;60317;48.880;-0.862;2022-09-29T05:25:42;98846.13;;;18.59;49.53
72359;BME280;60317;48.880;-0.862;2022-09-29T05:28:10;98848.09;;;18.91;49.00
72359;BME280;60317;48.880;-0.862;2022-09-29T05:30:36;98843.00;;;19.14;48.60
72359;BME280;60317;48.880;-0.862;2022-09-29T05:33:03;98853.25;;;19.27;48.37
72359;BME280;60317;48.880;-0.862;2022-09-29T05:35:29;98849.91;;;19.41;48.03
72359;BME280;60317;48.880;-0.862;2022-09-29T05:37:55;98852.72;;;19.23;48.68
72359;BME280;60317;48.880;-0.862;2022-09-29T05:40:22;98851.41;;;19.27;48.67
72359;BME280;60317;48.880;-0.862;2022-09-29T05:42:49;98856.25;;;19.32;48.70
72359;BME280;60317;48.880;-0.862;2022-09-29T05:45:16;98857.97;;;19.41;48.53
72359;BME280;60317;48.880;-0.862;2022-09-29T05:47:43;98853.44;;;19.42;48.82
72359;BME280;60317;48.880;-0.862;2022-09-29T05:50:10;98853.94;;;19.45;48.66
72359;BME280;60317;48.880;-0.862;2022-09-29T05:52:36;98852.94;;;19.46;48.86
72359;BME280;60317;48.880;-0.862;2022-09-29T05:55:03;98852.09;;;19.46;49.21
72359;BME280;60317;48.880;-0.862;2022-09-29T05:57:32;98854.94;;;19.52;48.77
72359;BME280;60317;48.880;-0.862;2022-09-29T05:59:58;98849.44;;;19.62;48.55
72359;BME280;60317;48.880;-0.862;2022-09-29T06:02:26;98850.09;;;19.56;48.94
72359;BME280;60317;48.880;-0.862;2022-09-29T06:04:53;98846.38;;;19.41;49.16
72359;BME280;60317;48.880;-0.862;2022-09-29T06:07:19;98854.75;;;19.29;49.55
72359;BME280;60317;48.880;-0.862;2022-09-29T06:09:45;98852.41;;;19.43;49.27
72359;BME280;60317;48.880;-0.862;2022-09-29T06:12:12;98855.44;;;19.48;49.11
72359;BME280;60317;48.880;-0.862;2022-09-29T06:14:38;98856.94;;;19.50;49.08
72359;BME280;60317;48.880;-0.862;2022-09-29T06:17:05;98858.63;;;19.60;48.87
72359;BME280;60317;48.880;-0.862;2022-09-29T06:19:32;98862.69;;;19.64;49.00
72359;BME280;60317;48.880;-0.862;2022-09-29T06:21:59;98862.84;;;19.62;48.92
72359;BME280;60317;48.880;-0.862;2022-09-29T06:24:25;98863.38;;;19.66;49.09
72359;BME280;60317;48.880;-0.862;2022-09-29T06:26:52;98863.38;;;19.66;48.99
72359;BME280;60317;48.880;-0.862;2022-09-29T06:29:18;98858.34;;;19.71;48.85
72359;BME280;60317;48.880;-0.862;2022-09-29T06:31:45;98869.22;;;19.77;48.50
72359;BME280;60317;48.880;-0.862;2022-09-29T06:34:12;98876.22;;;19.54;49.21
72359;BME280;60317;48.880;-0.862;2022-09-29T06:36:40;98882.91;;;19.50;49.70
72359;BME280;60317;48.880;-0.862;2022-09-29T06:39:08;98879.06;;;19.61;49.31
72359;BME280;60317;48.880;-0.862;2022-09-29T06:41:34;98880.28;;;19.66;49.33
72359;BME280;60317;48.880;-0.862;2022-09-29T06:44:01;98885.47;;;19.76;48.89
72359;BME280;60317;48.880;-0.862;2022-09-29T06:46:28;98882.13;;;19.74;48.97
72359;BME280;60317;48.880;-0.862;2022-09-29T06:48:54;98880.09;;;19.76;49.02
72359;BME280;60317;48.880;-0.862;2022-09-29T06:51:21;98879.94;;;19.77;48.96
72359;BME280;60317;48.880;-0.862;2022-09-29T06:53:51;98877.41;;;19.76;49.14
72359;BME280;60317;48.880;-0.862;2022-09-29T06:56:28;98880.13;;;19.84;48.82
72359;BME280;60317;48.880;-0.862;2022-09-29T06:58:55;98885.31;;;19.77;48.95
72359;BME280;60317;48.880;-0.862;2022-09-29T07:01:21;98883.38;;;19.29;49.35
72359;BME280;60317;48.880;-0.862;2022-09-29T07:03:48;98876.06;;;18.63;49.31
72359;BME280;60317;48.880;-0.862;2022-09-29T07:06:14;98884.38;;;18.51;49.69
72359;BME280;60317;48.880;-0.862;2022-09-29T07:08:45;98881.34;;;18.46;50.31
72359;BME280;60317;48.880;-0.862;2022-09-29T07:11:13;98884.34;;;18.43;50.42
72359;BME280;60317;48.880;-0.862;2022-09-29T07:13:39;98886.78;;;18.10;50.43
72359;BME280;60317;48.880;-0.862;2022-09-29T07:16:06;98887.84;;;18.18;50.59
72359;BME280;60317;48.880;-0.862;2022-09-29T07:18:33;98886.88;;;18.19;50.70
72359;BME280;60317;48.880;-0.862;2022-09-29T07:21:00;98896.28;;;18.05;51.08
72359;BME280;60317;48.880;-0.862;2022-09-29T07:23:26;98897.44;;;18.02;51.69
72359;BME280;60317;48.880;-0.862;2022-09-29T07:25:53;98895.44;;;18.04;51.68
72359;BME280;60317;48.880;-0.862;2022-09-29T07:28:20;98896.63;;;17.84;51.87
72359;BME280;60317;48.880;-0.862;2022-09-29T07:30:47;98896.00;;;17.90;51.87
72359;BME280;60317;48.880;-0.862;2022-09-29T07:33:38;98899.81;;;17.87;51.81
72359;BME280;60317;48.880;-0.862;2022-09-29T07:36:05;98888.81;;;17.73;52.18
72359;BME280;60317;48.880;-0.862;2022-09-29T07:38:31;98898.03;;;17.60;52.19
72359;BME280;60317;48.880;-0.862;2022-09-29T07:40:58;98907.22;;;17.76;52.17
72359;BME280;60317;48.880;-0.862;2022-09-29T07:43:26;98899.09;;;17.68;52.17
72359;BME280;60317;48.880;-0.862;2022-09-29T07:45:52;98898.56;;;17.64;52.62
72359;BME280;60317;48.880;-0.862;2022-09-29T07:48:19;98903.09;;;17.63;52.70
72359;BME280;60317;48.880;-0.862;2022-09-29T07:50:45;98903.31;;;17.70;53.09
72359;BME280;60317;48.880;-0.862;2022-09-29T07:53:12;98906.81;;;17.71;53.52
72359;BME280;60317;48.880;-0.862;2022-09-29T07:55:38;98913.44;;;17.76;53.61
72359;BME280;60317;48.880;-0.862;2022-09-29T07:58:05;98915.03;;;17.87;53.89
72359;BME280;60317;48.880;-0.862;2022-09-29T08:00:33;98915.56;;;17.91;54.16
72359;BME280;60317;48.880;-0.862;2022-09-29T08:03:00;98905.22;;;17.96;54.09
72359;BME280;60317;48.880;-0.862;2022-09-29T08:05:26;98901.25;;;18.00;54.76
72359;BME280;60317;48.880;-0.862;2022-09-29T08:07:53;98904.19;;;18.15;54.64
72359;BME280;60317;48.880;-0.862;2022-09-29T08:10:19;98902.59;;;18.22;54.75
72359;BME280;60317;48.880;-0.862;2022-09-29T08:12:46;98902.59;;;18.22;54.92
72359;BME280;60317;48.880;-0.862;2022-09-29T08:15:12;98903.31;;;18.32;54.60
72359;BME280;60317;48.880;-0.862;2022-09-29T08:17:40;98908.88;;;18.39;54.68
72359;BME280;60317;48.880;-0.862;2022-09-29T08:20:07;98907.34;;;18.62;54.76
72359;BME280;60317;48.880;-0.862;2022-09-29T08:22:33;98910.28;;;18.77;55.13
72359;BME280;60317;48.880;-0.862;2022-09-29T08:25:00;98910.97;;;18.79;55.05
72359;BME280;60317;48.880;-0.862;2022-09-29T08:27:26;98915.91;;;18.66;54.73
72359;BME280;60317;48.880;-0.862;2022-09-29T08:29:53;98920.19;;;18.58;55.48
72359;BME280;60317;48.880;-0.862;2022-09-29T08:32:19;98918.16;;;18.52;55.25
72359;BME280;60317;48.880;-0.862;2022-09-29T08:34:47;98919.47;;;18.48;55.90
72359;BME280;60317;48.880;-0.862;2022-09-29T08:37:13;98915.47;;;18.52;55.59
72359;BME280;60317;48.880;-0.862;2022-09-29T08:39:39;98924.53;;;18.59;55.39
72359;BME280;60317;48.880;-0.862;2022-09-29T08:42:07;98920.00;;;18.52;55.66
72359;BME280;60317;48.880;-0.862;2022-09-29T08:44:40;98923.97;;;18.48;55.73
72359;BME280;60317;48.880;-0.862;2022-09-29T08:47:13;98922.84;;;18.50;55.62
72359;BME280;60317;48.880;-0.862;2022-09-29T08:49:41;98929.69;;;18.53;55.32
72359;BME280;60317;48.880;-0.862;2022-09-29T08:52:11;98933.94;;;18.64;55.11
72359;BME280;60317;48.880;-0.862;2022-09-29T08:54:43;98928.25;;;18.67;54.80
72359;BME280;60317;48.880;-0.862;2022-09-29T08:57:15;98936.56;;;18.55;55.15
72359;BME280;60317;48.880;-0.862;2022-09-29T08:59:42;98932.81;;;18.40;55.33
72359;BME280;60317;48.880;-0.862;2022-09-29T09:02:20;98944.88;;;18.44;55.32
72359;BME280;60317;48.880;-0.862;2022-09-29T09:04:55;98936.66;;;18.46;55.17
72359;BME280;60317;48.880;-0.862;2022-09-29T09:07:31;98939.72;;;18.51;54.99
72359;BME280;60317;48.880;-0.862;2022-09-29T09:10:03;98932.44;;;18.61;54.41
72359;BME280;60317;48.880;-0.862;2022-09-29T09:12:44;98936.47;;;18.65;54.66
72359;BME280;60317;48.880;-0.862;2022-09-29T09:15:21;98942.44;;;18.59;54.91
72359;BME280;60317;48.880;-0.862;2022-09-29T09:17:54;98941.25;;;18.79;54.81
72359;BME280;60317;48.880;-0.862;2022-09-29T09:20:27;98942.56;;;18.75;54.36
72359;BME280;60317;48.880;-0.862;2022-09-29T09:22:59;98946.03;;;18.68;54.76
72359;BME280;60317;48.880;-0.862;2022-09-29T09:25:27;98950.44;;;19.11;53.68
72359;BME280;60317;48.880;-0.862;2022-09-29T09:27:55;98951.75;;;19.49;52.59
72359;BME280;60317;48.880;-0.862;2022-09-29T09:30:25;98956.91;;;19.43;52.61
72359;BME280;60317;48.880;-0.862;2022-09-29T09:32:55;98963.94;;;19.44;52.89
72359;BME280;60317;48.880;-0.862;2022-09-29T09:35:25;98962.69;;;19.64;52.31
72359;BME280;60317;48.880;-0.862;2022-09-29T09:37:53;98974.59;;;19.70;52.29
72359;BME280;60317;48.880;-0.862;2022-09-29T09:40:25;98973.78;;;19.77;52.04
72359;BME280;60317;48.880;-0.862;2022-09-29T09:42:53;98978.81;;;19.81;52.01
72359;BME280;60317;48.880;-0.862;2022-09-29T09:45:25;98982.34;;;19.89;51.88
72359;BME280;60317;48.880;-0.862;2022-09-29T09:47:52;98978.16;;;19.95;51.87
72359;BME280;60317;48.880;-0.862;2022-09-29T09:50:22;98981.00;;;20.10;51.57
72359;BME280;60317;48.880;-0.862;2022-09-29T09:52:50;98979.06;;;19.53;52.64
72359;BME280;60317;48.880;-0.862;2022-09-29T09:55:18;98983.19;;;19.39;53.15
72359;BME280;60317;48.880;-0.862;2022-09-29T09:57:50;98982.56;;;19.62;52.65
72359;BME280;60317;48.880;-0.862;2022-09-29T10:00:22;98981.16;;;19.84;52.05
72359;BME280;60317;48.880;-0.862;2022-09-29T10:02:51;98983.03;;;19.91;51.69
72359;BME280;60317;48.880;-0.862;2022-09-29T10:05:18;98995.59;;;19.99;51.49
72359;BME280;60317;48.880;-0.862;2022-09-29T10:07:46;98988.56;;;19.98;51.35
72359;BME280;60317;48.880;-0.862;2022-09-29T10:10:14;98998.09;;;20.00;51.48
72359;BME280;60317;48.880;-0.862;2022-09-29T10:12:42;99002.97;;;20.05;51.23
72359;BME280;60317;48.880;-0.862;2022-09-29T10:15:14;99002.97;;;20.05;51.21
72359;BME280;60317;48.880;-0.862;2022-09-29T10:17:43;99016.22;;;19.90;51.66
72359;BME280;60317;48.880;-0.862;2022-09-29T10:20:11;99009.59;;;19.68;52.20
72359;BME280;60317;48.880;-0.862;2022-09-29T10:22:37;99012.66;;;19.90;51.76
72359;BME280;60317;48.880;-0.862;2022-09-29T10:25:05;99008.66;;;19.94;51.58
72359;BME280;60317;48.880;-0.862;2022-09-29T10:27:32;99008.31;;;19.97;51.24
72359;BME280;60317;48.880;-0.862;2022-09-29T10:29:59;99007.34;;;20.06;51.15
72359;BME280;60317;48.880;-0.862;2022-09-29T10:32:29;99012.19;;;20.02;51.20
72359;BME280;60317;48.880;-0.862;2022-09-29T10:35:00;99012.84;;;19.03;52.77
72359;BME280;60317;48.880;-0.862;2022-09-29T10:37:29;99013.66;;;19.04;53.11
72359;BME280;60317;48.880;-0.862;2022-09-29T10:40:00;99019.84;;;19.73;51.80
72359;BME280;60317;48.880;-0.862;2022-09-29T10:42:30;99012.84;;;19.80;51.32
72359;BME280;60317;48.880;-0.862;2022-09-29T10:45:00;99021.16;;;19.69;51.88
72359;BME280;60317;48.880;-0.862;2022-09-29T10:47:28;99017.50;;;19.86;51.31
72359;BME280;60317;48.880;-0.862;2022-09-29T10:52:31;99021.25;;;20.01;50.93
72359;BME280;60317;48.880;-0.862;2022-09-29T10:54:58;99021.75;;;20.05;50.82
72359;BME280;60317;48.880;-0.862;2022-09-29T10:57:26;99020.91;;;20.05;50.86
72359;BME280;60317;48.880;-0.862;2022-09-29T10:59:53;99026.63;;;20.10;50.84
72359;BME280;60317;48.880;-0.862;2022-09-29T11:02:22;99024.94;;;20.17;50.96
72359;BME280;60317;48.880;-0.862;2022-09-29T11:04:52;99022.41;;;19.91;51.35
72359;BME280;60317;48.880;-0.862;2022-09-29T11:07:19;99024.91;;;19.84;51.35
72359;BME280;60317;48.880;-0.862;2022-09-29T11:09:46;99033.97;;;20.08;50.81
72359;BME280;60317;48.880;-0.862;2022-09-29T11:12:24;99030.31;;;20.17;50.68
72359;BME280;60317;48.880;-0.862;2022-09-29T11:14:50;99032.47;;;20.21;50.83
72359;BME280;60317;48.880;-0.862;2022-09-29T11:17:19;99036.34;;;20.35;50.62
72359;BME280;60317;48.880;-0.862;2022-09-29T11:19:46;99045.22;;;20.36;50.47
72359;BME280;60317;48.880;-0.862;2022-09-29T11:27:53;99047.06;;;19.94;51.39
72359;BME280;60317;48.880;-0.862;2022-09-29T11:30:25;99047.06;;;20.02;51.19
72359;BME280;60317;48.880;-0.862;2022-09-29T11:32:58;99048.41;;;20.07;51.04
72359;BME280;60317;48.880;-0.862;2022-09-29T11:35:29;99059.16;;;19.30;52.10
72359;BME280;60317;48.880;-0.862;2022-09-29T11:38:07;99061.81;;;18.96;52.33
72359;BME280;60317;48.880;-0.862;2022-09-29T11:40:40;99063.13;;;18.92;52.13
72359;BME280;60317;48.880;-0.862;2022-09-29T11:43:18;99062.75;;;18.87;52.61
72359;BME280;60317;48.880;-0.862;2022-09-29T11:45:54;99061.34;;;18.74;52.84
72359;BME280;60317;48.880;-0.862;2022-09-29T11:48:32;99057.25;;;18.70;53.04
72359;BME280;60317;48.880;-0.862;2022-09-29T11:51:02;99069.13;;;18.68;53.15
72359;BME280;60317;48.880;-0.862;2022-09-29T11:53:35;99060.41;;;18.66;52.86
72359;BME280;60317;48.880;-0.862;2022-09-29T11:56:13;99068.13;;;18.69;52.72
72359;BME280;60317;48.880;-0.862;2022-09-29T11:58:49;99065.53;;;18.77;52.48
72359;BME280;60317;48.880;-0.862;2022-09-29T12:01:22;99073.47;;;18.69;52.03
72359;BME280;60317;48.880;-0.862;2022-09-29T12:03:52;99067.44;;;18.67;51.72
72359;BME280;60317;48.880;-0.862;2022-09-29T12:06:30;99071.72;;;18.59;51.81
72359;BME280;60317;48.880;-0.862;2022-09-29T12:09:04;99073.72;;;18.57;51.89
72359;BME280;60317;48.880;-0.862;2022-09-29T12:11:35;99079.59;;;18.61;52.20
72359;BME280;60317;48.880;-0.862;2022-09-29T12:14:27;99071.41;;;18.63;52.25
72359;BME280;60317;48.880;-0.862;2022-09-29T12:16:57;99082.28;;;18.61;53.15
72359;BME280;60317;48.880;-0.862;2022-09-29T12:19:26;99081.44;;;18.60;53.89
72359;BME280;60317;48.880;-0.862;2022-09-29T12:21:54;99083.19;;;18.70;54.51
72359;BME280;60317;48.880;-0.862;2022-09-29T12:24:25;99086.69;;;18.88;54.28
72359;BME280;60317;48.880;-0.862;2022-09-29T12:26:53;99091.72;;;18.91;55.07
72359;BME280;60317;48.880;-0.862;2022-09-29T12:29:28;99090.38;;;18.87;55.20
72359;BME280;60317;48.880;-0.862;2022-09-29T12:31:56;99087.63;;;18.79;55.57
72359;BME280;60317;48.880;-0.862;2022-09-29T12:34:37;99080.66;;;18.68;55.92
72359;BME280;60317;48.880;-0.862;2022-09-29T12:37:06;99090.84;;;18.65;56.20
72359;BME280;60317;48.880;-0.862;2022-09-29T12:39:37;99086.84;;;18.69;56.55
72359;BME280;60317;48.880;-0.862;2022-09-29T12:42:09;99086.31;;;18.65;56.64
72359;BME280;60317;48.880;-0.862;2022-09-29T12:44:41;99085.78;;;18.62;56.51
72359;BME280;60317;48.880;-0.862;2022-09-29T12:47:11;99090.16;;;18.63;56.31
72359;BME280;60317;48.880;-0.862;2022-09-29T12:49:42;99087.94;;;18.58;56.35
72359;BME280;60317;48.880;-0.862;2022-09-29T12:52:16;99091.28;;;18.60;56.30
72359;BME280;60317;48.880;-0.862;2022-09-29T12:54:46;99102.38;;;18.65;56.33
72359;BME280;60317;48.880;-0.862;2022-09-29T12:57:15;99097.81;;;18.57;56.39
72359;BME280;60317;48.880;-0.862;2022-09-29T12:59:46;99098.56;;;18.68;56.16
72359;BME280;60317;48.880;-0.862;2022-09-29T13:02:24;99103.47;;;18.72;56.03
72359;BME280;60317;48.880;-0.862;2022-09-29T13:05:02;99096.50;;;18.62;56.09
72359;BME280;60317;48.880;-0.862;2022-09-29T13:07:38;99097.63;;;18.59;55.81